createdAt,value
2022-12-18T00:01:35.103Z,102759.44
2022-12-18T00:04:30.543Z,102753.56
2022-12-18T00:07:17.394Z,102735.03
2022-12-18T00:10:11.737Z,102740.09
2022-12-18T00:13:05.180Z,102745.59
2022-12-18T00:16:01.523Z,102745.72
2022-12-18T00:18:50.317Z,102734.53
2022-12-18T00:21:43.502Z,102740.91
2022-12-18T00:24:43.529Z,102758.19
2022-12-18T00:27:36.536Z,102759.91
2022-12-18T00:30:23.616Z,102739.09
2022-12-18T00:33:16.582Z,102745.59
2022-12-18T00:36:05.471Z,102744.22
2022-12-18T00:39:00.564Z,102744.56
2022-12-18T00:42:12.512Z,102745.88
2022-12-18T00:44:59.996Z,102747.16
2022-12-18T00:47:53.580Z,102738.34
2022-12-18T00:50:40.561Z,102735.41
2022-12-18T00:53:33.567Z,102741.78
2022-12-18T00:56:23.818Z,102739.09
2022-12-18T00:59:17.529Z,102733.78
2022-12-18T01:02:10.585Z,102727.78
2022-12-18T01:04:57.461Z,102736.72
2022-12-18T01:07:50.544Z,102730.59
2022-12-18T01:10:37.421Z,102734.66
2022-12-18T01:13:30.522Z,102717.00
2022-12-18T01:16:25.591Z,102722.06
2022-12-18T01:19:18.599Z,102712.03
2022-12-18T01:22:05.421Z,102709.69
2022-12-18T01:25:05.722Z,102718.50
2022-12-18T01:27:52.719Z,102714.31
2022-12-18T01:30:45.519Z,102722.19
2022-12-18T01:33:32.359Z,102737.78
2022-12-18T01:36:28.625Z,102736.94
2022-12-18T01:39:16.266Z,102744.78
2022-12-18T01:42:20.595Z,102742.97
2022-12-18T01:45:13.086Z,102742.09
2022-12-18T01:48:09.536Z,102741.34
2022-12-18T01:50:56.884Z,102743.09
2022-12-18T01:53:51.566Z,102731.69
2022-12-18T01:56:38.394Z,102732.66
2022-12-18T01:59:31.559Z,102725.03
2022-12-18T02:02:18.946Z,102742.53
2022-12-18T02:05:12.567Z,102742.47
2022-12-18T02:08:11.525Z,102751.03
2022-12-18T02:11:16.557Z,102734.47
2022-12-18T02:14:24.565Z,102747.47
2022-12-18T02:17:27.621Z,102740.72
2022-12-18T02:20:42.613Z,102741.72
2022-12-18T02:24:01.585Z,102744.28
2022-12-18T02:26:58.603Z,102736.31
2022-12-18T02:29:57.628Z,102733.00
2022-12-18T02:32:56.609Z,102732.75
2022-12-18T02:35:52.595Z,102739.84
2022-12-18T02:38:53.596Z,102733.63
2022-12-18T02:41:47.584Z,102724.06
2022-12-18T02:44:50.369Z,102735.19
2022-12-18T02:47:49.652Z,102733.22
2022-12-18T02:50:42.629Z,102717.41
2022-12-18T02:53:47.641Z,102727.81
2022-12-18T02:56:53.612Z,102738.16
2022-12-18T02:59:57.588Z,102738.16
2022-12-18T03:03:04.713Z,102738.91
2022-12-18T03:06:05.555Z,102741.72
2022-12-18T03:09:05.656Z,102744.41
2022-12-18T03:12:26.179Z,102740.84
2022-12-18T03:15:26.599Z,102735.69
2022-12-18T03:18:21.696Z,102731.25
2022-12-18T03:21:17.545Z,102728.81
2022-12-18T03:24:15.672Z,102724.41
2022-12-18T03:27:14.565Z,102712.91
2022-12-18T03:30:15.602Z,102726.25
2022-12-18T03:33:25.084Z,102720.97
2022-12-18T03:36:18.611Z,102730.50
2022-12-18T03:39:11.722Z,102712.16
2022-12-18T03:42:23.664Z,102708.72
2022-12-18T03:45:34.665Z,102710.97
2022-12-18T03:48:35.659Z,102702.03
2022-12-18T03:51:40.650Z,102704.47
2022-12-18T03:54:35.666Z,102704.34
2022-12-18T03:57:33.626Z,102696.41
2022-12-18T04:00:21.590Z,102704.34
2022-12-18T04:03:17.672Z,102692.22
2022-12-18T04:06:06.405Z,102688.88
2022-12-18T04:09:00.685Z,102687.19
2022-12-18T04:11:48.501Z,102701.28
2022-12-18T04:14:42.670Z,102694.50
2022-12-18T04:17:29.475Z,102698.56
2022-12-18T04:20:23.687Z,102695.88
2022-12-18T04:23:10.515Z,102694.19
2022-12-18T04:26:03.611Z,102680.31
2022-12-18T04:28:56.717Z,102698.81
2022-12-18T04:31:49.681Z,102688.50
2022-12-18T04:34:42.641Z,102685.06
2022-12-18T04:37:35.634Z,102685.06
2022-12-18T04:40:22.456Z,102692.69
2022-12-18T04:43:15.750Z,102683.97
2022-12-18T04:46:14.688Z,102695.88
2022-12-18T04:49:01.470Z,102699.31
2022-12-18T04:51:54.688Z,102683.19
2022-12-18T04:54:42.178Z,102677.28
2022-12-18T04:57:35.645Z,102672.88
2022-12-18T05:00:23.079Z,102668.22
2022-12-18T05:03:16.693Z,102658.47
2022-12-18T05:06:04.908Z,102649.97
2022-12-18T05:08:58.667Z,102657.72
2022-12-18T05:11:45.401Z,102667.47
2022-12-18T05:14:39.682Z,102672.88
2022-12-18T05:17:26.470Z,102679.34
2022-12-18T05:20:20.711Z,102685.56
2022-12-18T05:23:13.711Z,102683.88
2022-12-18T05:26:15.723Z,102697.44
2022-12-18T05:29:15.680Z,102688.84
2022-12-18T05:32:02.425Z,102661.00
2022-12-18T05:34:55.665Z,102699.16
2022-12-18T05:37:43.395Z,102692.19
2022-12-18T05:40:36.713Z,102698.69
2022-12-18T05:43:27.022Z,102697.09
2022-12-18T05:46:22.773Z,102699.03
2022-12-18T05:49:10.217Z,102697.94
2022-12-18T05:52:03.744Z,102696.44
2022-12-18T05:54:50.537Z,102702.81
2022-12-18T05:57:43.719Z,102708.31
2022-12-18T06:00:31.473Z,102718.97
2022-12-18T06:03:29.270Z,102722.50
2022-12-18T06:06:33.701Z,102722.59
2022-12-18T06:09:20.606Z,102717.56
2022-12-18T06:12:15.065Z,102724.47
2022-12-18T06:15:01.914Z,102730.03
2022-12-18T06:17:54.713Z,102731.91
2022-12-18T06:20:42.462Z,102746.19
2022-12-18T06:23:35.725Z,102744.38
2022-12-18T06:26:29.805Z,102734.78
2022-12-18T06:29:22.717Z,102743.28
2022-12-18T06:32:09.616Z,102730.91
2022-12-18T06:35:02.749Z,102734.13
2022-12-18T06:37:55.749Z,102735.00
2022-12-18T06:40:48.755Z,102732.28
2022-12-18T06:43:42.222Z,102731.53
2022-12-18T06:46:35.749Z,102714.66
2022-12-18T06:49:30.606Z,102718.31
2022-12-18T06:52:17.814Z,102707.69
2022-12-18T06:55:12.713Z,102713.91
2022-12-18T06:58:05.777Z,102704.88
2022-12-18T07:00:59.746Z,102696.94
2022-12-18T07:03:46.619Z,102686.59
2022-12-18T07:06:39.716Z,102691.63
2022-12-18T07:09:32.730Z,102674.13
2022-12-18T07:12:25.722Z,102669.47
2022-12-18T07:15:12.762Z,102672.28
2022-12-18T07:18:05.770Z,102669.72
2022-12-18T07:20:52.549Z,102664.22
2022-12-18T07:23:46.841Z,102672.72
2022-12-18T07:26:46.753Z,102662.16
2022-12-18T07:29:39.792Z,102665.34
2022-12-18T07:32:32.760Z,102666.09
2022-12-18T07:35:24.755Z,102668.91
2022-12-18T07:38:18.776Z,102669.66
2022-12-18T07:41:13.973Z,102681.28
2022-12-18T07:43:48.745Z,102683.22
2022-12-18T07:46:36.577Z,102674.41
2022-12-18T07:49:29.826Z,102683.22
2022-12-18T07:52:25.931Z,102685.38
2022-12-18T07:55:19.788Z,102676.94
2022-12-18T07:58:06.779Z,102681.19
2022-12-18T08:01:00.825Z,102683.81
2022-12-18T08:03:53.813Z,102677.94
2022-12-18T08:06:48.208Z,102669.09
2022-12-18T08:09:35.401Z,102674.38
2022-12-18T08:12:28.777Z,102680.38
2022-12-18T08:15:15.953Z,102678.34
2022-12-18T08:18:14.120Z,102656.81
2022-12-18T08:21:37.805Z,102660.75
2022-12-18T08:24:30.867Z,102674.00
2022-12-18T08:27:30.848Z,102664.91
2022-12-18T08:30:24.933Z,102668.47
2022-12-18T08:33:17.776Z,102655.38
2022-12-18T08:36:17.285Z,102645.09
2022-12-18T08:39:12.562Z,102652.00
2022-12-18T08:42:18.514Z,102647.47
2022-12-18T08:45:12.813Z,102641.09
2022-12-18T08:47:59.663Z,102630.56
2022-12-18T08:51:07.057Z,102643.06
2022-12-18T08:53:54.186Z,102628.97
2022-12-18T08:56:47.823Z,102624.81
2022-12-18T08:59:40.809Z,102638.78
2022-12-18T09:02:27.901Z,102632.75
2022-12-18T09:05:21.814Z,102641.84
2022-12-18T09:08:09.241Z,102634.00
2022-12-18T09:11:02.824Z,102618.31
2022-12-18T09:13:49.937Z,102635.72
2022-12-18T09:16:43.892Z,102634.97
2022-12-18T09:19:37.817Z,102638.06
2022-12-18T09:22:24.674Z,102639.50
2022-12-18T09:25:18.810Z,102640.13
2022-12-18T09:28:26.803Z,102641.59
2022-12-18T09:31:14.509Z,102645.25
2022-12-18T09:34:07.866Z,102654.84
2022-12-18T09:37:00.884Z,102643.78
2022-12-18T09:39:53.935Z,102639.28
2022-12-18T09:42:41.009Z,102619.06
2022-12-18T09:45:35.938Z,102614.03
2022-12-18T09:48:35.816Z,102613.31
2022-12-18T09:51:41.870Z,102611.84
2022-12-18T09:54:45.887Z,102611.09
2022-12-18T09:57:38.270Z,102619.31
2022-12-18T10:00:32.892Z,102616.63
2022-12-18T10:03:19.802Z,102618.31
2022-12-18T10:06:22.881Z,102611.22
2022-12-18T10:09:38.483Z,102604.22
2022-12-18T10:13:02.516Z,102606.56
2022-12-18T10:16:23.950Z,102624.09
2022-12-18T10:19:28.966Z,102602.13
2022-12-18T10:22:40.845Z,102580.56
2022-12-18T10:25:45.925Z,102563.44
2022-12-18T10:28:47.877Z,102542.09
2022-12-18T10:31:34.811Z,102554.22
2022-12-18T10:34:27.921Z,102541.47
2022-12-18T10:37:18.634Z,102529.97
2022-12-18T10:40:22.660Z,102524.81
2022-12-18T10:43:14.443Z,102510.47
2022-12-18T10:46:25.382Z,102517.31
2022-12-18T10:49:35.860Z,102514.63
2022-12-18T10:52:26.159Z,102519.00
2022-12-18T10:55:23.927Z,102513.63
2022-12-18T10:58:40.526Z,102507.16
2022-12-18T11:01:29.416Z,102523.81
2022-12-18T11:04:30.925Z,102502.72
2022-12-18T11:07:17.779Z,102492.34
2022-12-18T11:10:11.902Z,102495.91
2022-12-18T11:13:11.736Z,102492.06
2022-12-18T11:16:07.265Z,102495.91
2022-12-18T11:18:54.528Z,102501.53
2022-12-18T11:21:49.936Z,102486.97
2022-12-18T11:24:53.125Z,102496.78
2022-12-18T11:28:05.918Z,102484.06
2022-12-18T11:31:25.652Z,102485.03
2022-12-18T11:34:31.024Z,102470.59
2022-12-18T11:37:26.973Z,102467.03
2022-12-18T11:40:24.045Z,102461.78
2022-12-18T11:43:39.962Z,102462.31
2022-12-18T11:46:50.995Z,102450.41
2022-12-18T11:49:42.149Z,102462.81
2022-12-18T11:52:45.930Z,102442.13
2022-12-18T11:55:53.910Z,102450.81
2022-12-18T11:59:12.935Z,102453.38
2022-12-18T12:02:36.108Z,102451.44
2022-12-18T12:05:29.095Z,102436.38
2022-12-18T12:08:44.896Z,102420.09
2022-12-18T12:11:55.974Z,102433.19
2022-12-18T12:15:02.955Z,102431.75
2022-12-18T12:18:13.982Z,102426.72
2022-12-18T12:21:17.347Z,102426.72
2022-12-18T12:24:19.960Z,102407.13
2022-12-18T12:27:21.982Z,102397.47
2022-12-18T12:30:18.981Z,102394.97
2022-12-18T12:33:23.877Z,102387.03
2022-12-18T12:36:47.967Z,102374.69
2022-12-18T12:39:49.938Z,102377.50
2022-12-18T12:43:09.926Z,102364.53
2022-12-18T12:46:27.048Z,102375.78
2022-12-18T12:49:24.930Z,102371.53
2022-12-18T12:52:24.821Z,102364.19
2022-12-18T12:55:33.979Z,102368.22
2022-12-18T12:58:59.925Z,102366.63
2022-12-18T13:02:23.002Z,102367.63
2022-12-18T13:05:29.607Z,102354.25
2022-12-18T13:08:56.142Z,102352.69
2022-12-18T13:12:12.013Z,102355.25
2022-12-18T13:15:28.004Z,102342.88
2022-12-18T13:18:28.946Z,102339.09
2022-12-18T13:21:31.995Z,102333.97
2022-12-18T13:24:34.987Z,102340.31
2022-12-18T13:28:00.025Z,102338.50
2022-12-18T13:30:57.275Z,102335.31
2022-12-18T13:37:32.988Z,102334.34
2022-12-18T13:40:48.056Z,102329.06
2022-12-18T13:43:41.443Z,102331.78
2022-12-18T13:46:37.959Z,102316.50
2022-12-18T13:49:45.991Z,102319.19
2022-12-18T13:52:46.994Z,102305.34
2022-12-18T13:55:34.699Z,102305.00
2022-12-18T13:58:28.037Z,102294.34
2022-12-18T14:01:24.903Z,102284.56
2022-12-18T14:04:25.011Z,102286.50
2022-12-18T14:07:21.001Z,102282.97
2022-12-18T14:10:44.380Z,102281.25
2022-12-18T14:13:37.062Z,102277.00
2022-12-18T14:16:38.110Z,102266.09
2022-12-18T14:19:32.988Z,102259.84
2022-12-18T14:22:29.320Z,102256.31
2022-12-18T14:25:37.042Z,102237.59
2022-12-18T14:28:31.058Z,102245.81
2022-12-18T14:31:37.052Z,102241.91
2022-12-18T14:34:34.020Z,102248.97
2022-12-18T14:37:26.227Z,102255.47
2022-12-18T14:40:22.217Z,102251.66
2022-12-18T14:43:17.982Z,102258.50
2022-12-18T14:46:27.109Z,102257.69
2022-12-18T14:49:35.081Z,102235.78
2022-12-18T14:52:30.313Z,102225.75
2022-12-18T14:55:29.048Z,102242.50
2022-12-18T14:58:18.776Z,102219.03
2022-12-18T15:01:12.045Z,102230.13
2022-12-18T15:04:00.574Z,102217.56
2022-12-18T15:07:11.013Z,102220.03
2022-12-18T15:10:19.161Z,102225.41
2022-12-18T15:13:12.021Z,102227.97
2022-12-18T15:16:11.211Z,102215.47
2022-12-18T15:18:58.133Z,102224.53
2022-12-18T15:21:51.074Z,102207.91
2022-12-18T15:24:37.901Z,102214.63
2022-12-18T15:27:45.012Z,102190.91
2022-12-18T15:30:32.440Z,102193.47
2022-12-18T15:33:34.071Z,102192.38
2022-12-18T15:36:30.085Z,102176.59
2022-12-18T15:39:23.041Z,102168.53
2022-12-18T15:42:44.022Z,102169.13
2022-12-18T15:45:38.138Z,102179.28
2022-12-18T15:48:31.069Z,102155.06
2022-12-18T15:51:24.404Z,102170.63
2022-12-18T15:54:24.062Z,102138.41
2022-12-18T15:57:24.256Z,102175.72
2022-12-18T16:00:20.068Z,102181.47
2022-12-18T16:03:13.225Z,102188.53
2022-12-18T16:06:10.383Z,102169.53
2022-12-18T16:09:03.328Z,102187.63
2022-12-18T16:11:57.035Z,102181.97
2022-12-18T16:14:44.043Z,102159.59
2022-12-18T16:17:37.044Z,102157.19
2022-12-18T16:20:30.092Z,102149.19
2022-12-18T16:23:23.112Z,102138.28
2022-12-18T16:26:16.065Z,102133.03
2022-12-18T16:29:02.951Z,102123.22
2022-12-18T16:31:56.127Z,102118.13
2022-12-18T16:34:50.049Z,102132.75
2022-12-18T16:37:43.138Z,102119.50
2022-12-18T16:40:32.917Z,102141.16
2022-12-18T16:43:26.219Z,102138.91
2022-12-18T16:46:14.196Z,102123.53
2022-12-18T16:49:08.131Z,102112.59
2022-12-18T16:52:02.078Z,102117.84
2022-12-18T16:54:56.097Z,102095.84
2022-12-18T16:57:43.051Z,102129.50
2022-12-18T17:00:36.176Z,102108.78
2022-12-18T17:03:29.178Z,102102.09
2022-12-18T17:06:16.033Z,102121.63
2022-12-18T17:09:14.098Z,102109.47
2022-12-18T17:12:07.139Z,102095.78
2022-12-18T17:15:01.114Z,102097.09
2022-12-18T17:17:47.959Z,102109.19
2022-12-18T17:20:41.153Z,102094.44
2022-12-18T17:23:36.217Z,102089.34
2022-12-18T17:26:29.180Z,102095.03
2022-12-18T17:29:29.210Z,102099.47
2022-12-18T17:32:24.157Z,102088.00
2022-12-18T17:35:11.181Z,102099.63
2022-12-18T17:38:04.154Z,102086.84
2022-12-18T17:40:54.093Z,102070.53
2022-12-18T17:43:52.170Z,102085.84
2022-12-18T17:46:39.375Z,102075.34
2022-12-18T17:49:33.102Z,102084.41
2022-12-18T17:52:26.159Z,102079.00
2022-12-18T17:55:13.067Z,102069.25
2022-12-18T17:58:06.109Z,102058.31
2022-12-18T18:00:59.135Z,102061.34
2022-12-18T18:03:53.695Z,102073.72
2022-12-18T18:06:40.891Z,102061.25
2022-12-18T18:09:41.207Z,102072.19
2022-12-18T18:12:53.206Z,102075.00
2022-12-18T18:15:46.366Z,102057.97
2022-12-18T18:18:33.381Z,102040.94
2022-12-18T18:21:27.200Z,102052.75
2022-12-18T18:24:24.149Z,102060.94
2022-12-18T18:27:17.202Z,102056.69
2022-12-18T18:30:18.198Z,102059.25
2022-12-18T18:33:13.614Z,102062.81
2022-12-18T18:36:00.600Z,102062.34
2022-12-18T18:38:54.196Z,102064.56
2022-12-18T18:41:41.116Z,102084.88
2022-12-18T18:44:39.170Z,102085.16
2022-12-18T18:47:37.202Z,102076.66
2022-12-18T18:50:30.222Z,102078.53
2022-12-18T18:53:24.155Z,102084.59
2022-12-18T18:59:31.337Z,102087.22
2022-12-18T19:02:19.028Z,102074.38
2022-12-18T19:05:13.629Z,102079.06
2022-12-18T19:08:00.857Z,102087.88
2022-12-18T19:10:57.800Z,102078.63
2022-12-18T19:13:45.141Z,102078.53
2022-12-18T19:16:39.267Z,102073.13
2022-12-18T19:19:27.228Z,102063.47
2022-12-18T19:22:21.217Z,102072.72
2022-12-18T19:25:09.395Z,102071.25
2022-12-18T19:28:03.187Z,102063.31
2022-12-18T19:30:59.036Z,102060.19
2022-12-18T19:33:54.362Z,102065.00
2022-12-18T19:36:48.168Z,102056.78
2022-12-18T19:39:41.206Z,102052.09
2022-12-18T19:42:34.883Z,102047.41
2022-12-18T19:45:29.250Z,102048.00
2022-12-18T19:48:22.180Z,102043.47
2022-12-18T19:51:13.782Z,102041.44
2022-12-18T19:54:07.198Z,102024.84
2022-12-18T19:57:01.167Z,102037.94
2022-12-18T19:59:54.257Z,102035.78
2022-12-18T20:02:43.047Z,102034.09
2022-12-18T20:05:37.201Z,102028.13
2022-12-18T20:08:24.062Z,102025.13
2022-12-18T20:11:19.261Z,102040.06
2022-12-18T20:14:06.684Z,102034.13
2022-12-18T20:17:05.640Z,102022.59
2022-12-18T20:19:53.526Z,102021.91
2022-12-18T20:22:47.234Z,102024.19
2022-12-18T20:25:40.290Z,102037.94
2022-12-18T20:29:04.892Z,102032.78
2022-12-18T20:35:50.233Z,102023.00
2022-12-18T20:38:45.198Z,102041.44
2022-12-18T20:41:39.424Z,102034.97
2022-12-18T20:44:33.369Z,102033.97
2022-12-18T20:47:26.239Z,102031.53
2022-12-18T20:50:13.854Z,102038.91
2022-12-18T20:53:07.266Z,102030.25
2022-12-18T20:55:54.406Z,102030.53
2022-12-18T20:58:48.255Z,102019.47
2022-12-18T21:01:35.266Z,102027.41
2022-12-18T21:04:30.275Z,102026.13
2022-12-18T21:07:24.265Z,102016.34
2022-12-18T21:10:17.243Z,102011.94
2022-12-18T21:13:05.998Z,102026.28
2022-12-18T21:16:02.758Z,102018.47
2022-12-18T21:18:57.295Z,102028.84
2022-12-18T21:21:44.779Z,102019.88
2022-12-18T21:24:38.287Z,102013.81
2022-12-18T21:27:39.228Z,102012.66
2022-12-18T21:30:39.415Z,102013.56
2022-12-18T21:33:33.224Z,102014.50
2022-12-18T21:36:20.363Z,102011.22
2022-12-18T21:39:13.287Z,102022.88
2022-12-18T21:42:25.301Z,102014.34
2022-12-18T21:45:19.326Z,102015.75
2022-12-18T21:48:12.319Z,102016.31
2022-12-18T21:51:06.630Z,102007.25
2022-12-18T21:53:54.957Z,102008.41
2022-12-18T21:56:55.271Z,102007.16
2022-12-18T21:59:50.289Z,102012.41
2022-12-18T22:02:37.871Z,102001.88
2022-12-18T22:05:31.347Z,102001.88
2022-12-18T22:08:24.298Z,101994.94
2022-12-18T22:11:20.558Z,101959.69
2022-12-18T22:14:16.258Z,101980.72
2022-12-18T22:17:03.583Z,101978.59
2022-12-18T22:19:57.268Z,101983.44
2022-12-18T22:22:50.297Z,101975.91
2022-12-18T22:25:43.281Z,101968.22
2022-12-18T22:29:02.316Z,101962.13
2022-12-18T22:31:56.255Z,101963.28
2022-12-18T22:34:50.327Z,101950.06
2022-12-18T22:37:44.289Z,101947.22
2022-12-18T22:40:31.267Z,101944.09
2022-12-18T22:43:24.359Z,101933.16
2022-12-18T22:46:25.367Z,101917.81
2022-12-18T22:49:23.325Z,101929.16
2022-12-18T22:52:16.331Z,101914.84
2022-12-18T22:55:12.394Z,101926.31
2022-12-18T22:58:06.339Z,101924.63
2022-12-18T23:00:59.281Z,101911.00
2022-12-18T23:03:52.355Z,101912.72
2022-12-18T23:06:39.950Z,101911.41
2022-12-18T23:09:33.277Z,101902.47
2022-12-18T23:12:26.364Z,101891.28
2022-12-18T23:15:27.203Z,101894.94
2022-12-18T23:18:15.361Z,101885.44
2022-12-18T23:21:18.330Z,101887.28
2022-12-18T23:24:05.817Z,101871.81
2022-12-18T23:26:59.316Z,101866.56
2022-12-18T23:29:59.370Z,101853.38
2022-12-18T23:32:52.337Z,101847.28
2022-12-18T23:35:46.439Z,101850.69
2022-12-18T23:38:34.598Z,101840.06
2022-12-18T23:41:32.315Z,101841.19
2022-12-18T23:44:19.136Z,101830.56
2022-12-18T23:47:13.402Z,101828.97
2022-12-18T23:50:00.211Z,101821.03
2022-12-18T23:52:54.343Z,101809.09
2022-12-18T23:55:44.371Z,101797.31
2022-12-18T23:58:38.294Z,101770.22
